O'Brien, Oregon
Current Conditions -  °F | °C
As of 12:36 PM on Friday 21 Nov 2014 (Local Time) from KBOK Reporting Station
Moderate Rain Moderate Rain  
Wind Chill: 52°   Ceiling: 300
Heat Index: 52°   Visibility: 1.7mi
Dew Point: 52°   Wind: 10mph
Humidity: 100%   Direction: 150°SSE
Pressure: 29.92"   Gusts: 18mph
Location:  42.07°N, 123.71°W
Report Text: KBOK 212036Z AUTO 15009G16KT 1 3/4SM RA BR BKN003 OVC008 11/11 A2992 RMK AO2 CIG 001V005 P0011
Loading
Personal Weather Stations






























Interactive Weather Map New forecast layout! Learn more

10-Day Weather Forecast

Advertisements
Track Severe Weather on mobile